Time;durP1;ratioP1;P1;durP2;ratioP2;P2;SDS_P1;SDS_P2;PMS_P1;PMS_P2;Temp;Humidity;BMP_temperature;BMP_pressure;BME280_temperature;BME280_humidity;BME280_pressure;Samples;Min_cycle;Max_cycle;Signal;HPM_P1;HPM_P2
2023/12/28 00:02:07;;;;;;;12.20;2.97;;;;;;;;;;5013458;28;20124;-74
2023/12/28 00:04:34;;;;;;;22.05;4.65;;;;;;;;;;5014411;28;20033;-73
2023/12/28 00:06:59;;;;;;;12.60;2.97;;;;;;;;;;5014352;28;20026;-72
2023/12/28 00:09:25;;;;;;;9.10;2.25;;;;;;;;;;5011998;28;20056;-75
2023/12/28 00:11:50;;;;;;;14.20;3.97;;;;;;;;;;5013736;28;20181;-73
2023/12/28 00:14:15;;;;;;;8.80;2.50;;;;;;;;;;5014071;28;20072;-73
2023/12/28 00:16:40;;;;;;;10.57;2.80;;;;;;;;;;5013784;28;20026;-74
2023/12/28 00:19:06;;;;;;;11.37;2.60;;;;;;;;;;5013616;28;20113;-72
2023/12/28 00:21:31;;;;;;;10.20;2.47;;;;;;;;;;5013738;28;20257;-72
2023/12/28 00:23:56;;;;;;;13.80;3.25;;;;;;;;;;5013870;28;20022;-72
2023/12/28 00:26:21;;;;;;;12.30;3.03;;;;;;;;;;5013613;28;20037;-73
2023/12/28 00:28:47;;;;;;;12.63;3.25;;;;;;;;;;5012618;28;20105;-73
2023/12/28 00:31:12;;;;;;;12.00;2.70;;;;;;;;;;5013728;28;20033;-72
2023/12/28 00:33:37;;;;;;;10.25;2.33;;;;;;;;;;5014440;28;20080;-72
2023/12/28 00:36:02;;;;;;;10.33;2.83;;;;;;;;;;5016128;28;20034;-73
2023/12/28 00:38:28;;;;;;;8.10;2.50;;;;;;;;;;5017995;28;20264;-73
2023/12/28 00:40:53;;;;;;;12.70;3.50;;;;;;;;;;5017780;28;20026;-73
2023/12/28 00:43:18;;;;;;;7.83;2.10;;;;;;;;;;5017679;28;20363;-73
2023/12/28 00:45:43;;;;;;;10.17;3.00;;;;;;;;;;5016143;28;20285;-72
2023/12/28 00:48:08;;;;;;;11.80;2.80;;;;;;;;;;5017647;28;20307;-72
2023/12/28 00:50:34;;;;;;;9.80;2.43;;;;;;;;;;5017992;28;20030;-73
2023/12/28 00:52:59;;;;;;;7.27;2.23;;;;;;;;;;5015989;28;20650;-73
2023/12/28 00:55:24;;;;;;;8.52;2.50;;;;;;;;;;5013809;28;20264;-73
2023/12/28 00:57:50;;;;;;;9.68;2.92;;;;;;;;;;5013720;28;20478;-73
2023/12/28 01:00:15;;;;;;;14.70;2.38;;;;;;;;;;5013656;28;20032;-74
2023/12/28 01:02:40;;;;;;;11.40;2.63;;;;;;;;;;5011988;28;20022;-73
2023/12/28 01:05:06;;;;;;;13.33;2.67;;;;;;;;;;5013344;28;20484;-73
2023/12/28 01:07:31;;;;;;;7.05;2.72;;;;;;;;;;5013204;28;20273;-72
2023/12/28 01:09:56;;;;;;;7.20;2.07;;;;;;;;;;5013203;28;20073;-73
2023/12/28 01:12:21;;;;;;;7.17;2.50;;;;;;;;;;5013377;28;20606;-73
2023/12/28 01:14:46;;;;;;;5.18;2.30;;;;;;;;;;5013428;28;20737;-72
2023/12/28 01:17:12;;;;;;;6.72;2.25;;;;;;;;;;5013488;28;20113;-73
2023/12/28 01:19:37;;;;;;;6.77;2.60;;;;;;;;;;5014215;28;20026;-73
2023/12/28 01:22:02;;;;;;;7.60;2.50;;;;;;;;;;5017048;28;20269;-74
2023/12/28 01:24:27;;;;;;;9.80;3.05;;;;;;;;;;5016437;28;20262;-72
2023/12/28 01:26:53;;;;;;;9.93;2.70;;;;;;;;;;5016965;28;20040;-73
2023/12/28 01:29:18;;;;;;;6.88;2.20;;;;;;;;;;5017185;28;20268;-74
2023/12/28 01:31:43;;;;;;;11.27;2.70;;;;;;;;;;5016863;28;20026;-73
2023/12/28 01:34:09;;;;;;;8.47;2.47;;;;;;;;;;5016498;28;20191;-73
2023/12/28 01:36:34;;;;;;;5.70;2.45;;;;;;;;;;5016595;28;20652;-73
2023/12/28 01:38:59;;;;;;;11.02;2.47;;;;;;;;;;5016577;28;20429;-73
2023/12/28 01:41:25;;;;;;;11.23;2.40;;;;;;;;;;5016806;28;20026;-72
2023/12/28 01:43:50;;;;;;;9.07;2.60;;;;;;;;;;5015269;28;20273;-74
2023/12/28 01:46:16;;;;;;;10.37;2.50;;;;;;;;;;5016458;28;20292;-73
2023/12/28 01:48:43;;;;;;;7.28;2.33;;;;;;;;;;5016070;28;20625;-74
2023/12/28 01:51:08;;;;;;;8.30;2.78;;;;;;;;;;5016438;28;20022;-74
2023/12/28 01:53:33;;;;;;;9.37;2.17;;;;;;;;;;5016167;28;20049;-74
2023/12/28 01:55:59;;;;;;;11.32;2.85;;;;;;;;;;5016708;28;20275;-73
2023/12/28 01:58:25;;;;;;;7.28;2.28;;;;;;;;;;5015965;28;20022;-73
2023/12/28 02:00:50;;;;;;;7.68;2.67;;;;;;;;;;5015793;28;20018;-73
2023/12/28 02:03:15;;;;;;;5.82;2.28;;;;;;;;;;5016029;28;20029;-73
2023/12/28 02:05:41;;;;;;;6.78;2.10;;;;;;;;;;5016071;28;20026;-73
2023/12/28 02:08:06;;;;;;;12.32;3.10;;;;;;;;;;5014746;28;20037;-73
2023/12/28 02:10:31;;;;;;;8.23;2.60;;;;;;;;;;5014883;28;20068;-72
2023/12/28 02:12:56;;;;;;;13.82;2.40;;;;;;;;;;5015995;28;20029;-74
2023/12/28 02:15:22;;;;;;;18.25;2.90;;;;;;;;;;5015881;28;20466;-73
2023/12/28 02:17:52;;;;;;;12.60;2.75;;;;;;;;;;5015821;28;20083;-72
2023/12/28 02:20:19;;;;;;;13.65;2.47;;;;;;;;;;5016414;28;20072;-73
2023/12/28 02:22:45;;;;;;;10.98;2.20;;;;;;;;;;5015528;28;20018;-72
2023/12/28 02:25:13;;;;;;;13.05;2.50;;;;;;;;;;5015661;28;20030;-72
2023/12/28 02:27:42;;;;;;;10.95;2.38;;;;;;;;;;5015696;28;20030;-73
2023/12/28 02:30:08;;;;;;;11.07;2.25;;;;;;;;;;5015452;28;20022;-72
2023/12/28 02:33:12;;;;;;;13.77;2.13;;;;;;;;;;5015855;28;20084;-73
2023/12/28 02:35:57;;;;;;;15.00;2.90;;;;;;;;;;4954882;29;20050;-73
2023/12/28 02:38:23;;;;;;;14.23;2.50;;;;;;;;;;4954848;29;20066;-72
2023/12/28 02:40:48;;;;;;;20.27;2.22;;;;;;;;;;4990700;28;20034;-73
2023/12/28 02:43:14;;;;;;;13.02;2.83;;;;;;;;;;5015487;28;20014;-73
2023/12/28 02:45:39;;;;;;;15.13;2.55;;;;;;;;;;5015102;28;20042;-72
2023/12/28 02:48:05;;;;;;;12.02;2.70;;;;;;;;;;5015004;28;20459;-73
2023/12/28 02:50:30;;;;;;;17.77;2.78;;;;;;;;;;5015722;28;20076;-74
2023/12/28 02:52:56;;;;;;;12.25;2.17;;;;;;;;;;5014761;28;20495;-73
2023/12/28 02:55:21;;;;;;;9.65;2.85;;;;;;;;;;5015540;28;20022;-72
2023/12/28 02:57:46;;;;;;;13.27;2.90;;;;;;;;;;5013796;28;20017;-72
2023/12/28 03:00:12;;;;;;;8.98;2.30;;;;;;;;;;5015376;28;20049;-72
2023/12/28 03:02:37;;;;;;;13.88;2.72;;;;;;;;;;5014783;28;20410;-74
2023/12/28 03:05:06;;;;;;;15.38;2.25;;;;;;;;;;5014910;28;20068;-73
2023/12/28 03:07:32;;;;;;;15.27;2.42;;;;;;;;;;5013716;28;20026;-76
2023/12/28 03:09:57;;;;;;;12.38;2.30;;;;;;;;;;5015151;28;20049;-72
2023/12/28 03:12:23;;;;;;;5.47;1.70;;;;;;;;;;5015127;28;20057;-73
2023/12/28 03:14:48;;;;;;;14.73;2.35;;;;;;;;;;5014693;28;20033;-73
2023/12/28 03:17:13;;;;;;;13.77;2.50;;;;;;;;;;5014714;28;20379;-71
2023/12/28 03:19:38;;;;;;;9.57;1.98;;;;;;;;;;5014428;28;20036;-73
2023/12/28 03:22:04;;;;;;;10.98;2.40;;;;;;;;;;5015171;28;20099;-72
2023/12/28 03:24:29;;;;;;;9.30;2.23;;;;;;;;;;5013609;28;20014;-72
2023/12/28 03:26:54;;;;;;;13.43;2.88;;;;;;;;;;5014467;28;20327;-72
2023/12/28 03:29:20;;;;;;;15.80;2.50;;;;;;;;;;5015109;28;20025;-72
2023/12/28 03:31:45;;;;;;;14.82;2.35;;;;;;;;;;5014926;28;20261;-74
2023/12/28 03:34:10;;;;;;;13.90;2.25;;;;;;;;;;5014234;28;20022;-73
2023/12/28 03:36:35;;;;;;;16.90;3.08;;;;;;;;;;5014064;28;20036;-78
2023/12/28 03:39:00;;;;;;;12.98;2.60;;;;;;;;;;5014575;28;20028;-73
2023/12/28 03:41:26;;;;;;;12.13;2.23;;;;;;;;;;5014458;28;20102;-73
2023/12/28 03:43:51;;;;;;;9.35;2.20;;;;;;;;;;5013159;28;20280;-73
2023/12/28 03:46:16;;;;;;;9.40;1.97;;;;;;;;;;5013969;28;20036;-72
2023/12/28 03:48:41;;;;;;;28.98;2.75;;;;;;;;;;5014336;28;20348;-73
2023/12/28 03:51:07;;;;;;;11.60;2.47;;;;;;;;;;5013959;28;20454;-72
2023/12/28 03:53:32;;;;;;;15.10;2.40;;;;;;;;;;5014104;28;20054;-73
2023/12/28 03:56:00;;;;;;;15.93;2.50;;;;;;;;;;5014372;28;20030;-73
2023/12/28 03:58:25;;;;;;;9.43;2.35;;;;;;;;;;5014148;28;20726;-72
2023/12/28 04:00:51;;;;;;;16.37;2.70;;;;;;;;;;5014084;28;20044;-73
2023/12/28 04:03:16;;;;;;;16.45;2.40;;;;;;;;;;5014451;28;20275;-72
2023/12/28 04:05:43;;;;;;;21.55;2.50;;;;;;;;;;5013778;28;20040;-73
2023/12/28 04:08:08;;;;;;;14.77;2.13;;;;;;;;;;5013612;28;20030;-72
2023/12/28 04:10:33;;;;;;;10.13;2.67;;;;;;;;;;5013825;28;20481;-73
2023/12/28 04:12:59;;;;;;;18.25;2.55;;;;;;;;;;5013715;28;20446;-72
2023/12/28 04:15:25;;;;;;;16.85;2.95;;;;;;;;;;5013656;28;20029;-72
2023/12/28 04:17:51;;;;;;;13.13;2.17;;;;;;;;;;5014156;28;20021;-74
2023/12/28 04:20:16;;;;;;;16.35;2.75;;;;;;;;;;5013637;28;20532;-73
2023/12/28 04:22:43;;;;;;;12.43;2.23;;;;;;;;;;5014215;28;20022;-73
2023/12/28 04:25:08;;;;;;;15.73;2.95;;;;;;;;;;5013201;28;20307;-73
2023/12/28 04:27:33;;;;;;;22.67;3.28;;;;;;;;;;5013375;28;20066;-72
2023/12/28 04:29:58;;;;;;;16.60;2.85;;;;;;;;;;5012810;28;20021;-71
2023/12/28 04:32:24;;;;;;;18.50;2.90;;;;;;;;;;5013547;28;20026;-72
2023/12/28 04:34:49;;;;;;;18.75;2.70;;;;;;;;;;5014135;28;20297;-72
2023/12/28 04:37:14;;;;;;;26.40;3.42;;;;;;;;;;5013473;28;20455;-72
2023/12/28 04:39:40;;;;;;;14.18;2.58;;;;;;;;;;5013897;28;20478;-72
2023/12/28 04:42:05;;;;;;;14.95;1.95;;;;;;;;;;5013380;28;20033;-72
2023/12/28 04:44:30;;;;;;;11.02;2.70;;;;;;;;;;5013099;28;20029;-72
2023/12/28 04:46:55;;;;;;;11.30;2.47;;;;;;;;;;5013047;28;20139;-71
2023/12/28 04:49:20;;;;;;;14.70;2.40;;;;;;;;;;5013349;28;20260;-72
2023/12/28 04:51:46;;;;;;;18.47;2.53;;;;;;;;;;5013624;28;20325;-77
2023/12/28 04:54:11;;;;;;;19.45;3.13;;;;;;;;;;5018799;28;20765;-73
2023/12/28 04:56:36;;;;;;;16.13;3.13;;;;;;;;;;5017792;28;20029;-72
2023/12/28 04:59:01;;;;;;;14.48;2.28;;;;;;;;;;5017192;28;20025;-72
2023/12/28 05:01:31;;;;;;;15.93;3.33;;;;;;;;;;5017275;28;20025;-72
2023/12/28 05:03:56;;;;;;;15.70;2.50;;;;;;;;;;5016988;28;20018;-73
2023/12/28 05:06:21;;;;;;;17.02;2.90;;;;;;;;;;5016967;28;20026;-72
2023/12/28 05:08:46;;;;;;;15.85;3.17;;;;;;;;;;5017374;28;20022;-72
2023/12/28 05:11:12;;;;;;;12.97;2.73;;;;;;;;;;5015946;28;20466;-72
2023/12/28 05:13:37;;;;;;;25.58;3.10;;;;;;;;;;5016932;28;20264;-73
2023/12/28 05:16:03;;;;;;;20.00;3.33;;;;;;;;;;5017336;28;20451;-73
2023/12/28 05:18:28;;;;;;;16.40;3.35;;;;;;;;;;5016813;28;20264;-72
2023/12/28 05:20:53;;;;;;;18.85;2.83;;;;;;;;;;5016574;28;20033;-72
2023/12/28 05:23:18;;;;;;;20.13;2.97;;;;;;;;;;5017024;28;20022;-72
2023/12/28 05:25:46;;;;;;;21.10;3.20;;;;;;;;;;5017095;28;20068;-71
2023/12/28 05:28:11;;;;;;;16.50;2.72;;;;;;;;;;5016990;28;20118;-72
2023/12/28 05:30:36;;;;;;;27.23;3.67;;;;;;;;;;5015571;28;20113;-73
2023/12/28 05:33:02;;;;;;;18.63;2.83;;;;;;;;;;5017046;28;20018;-71
2023/12/28 05:35:27;;;;;;;19.80;3.35;;;;;;;;;;5016457;28;20014;-72
2023/12/28 05:37:52;;;;;;;22.48;2.95;;;;;;;;;;5016383;28;20513;-77
2023/12/28 05:40:17;;;;;;;26.73;3.63;;;;;;;;;;5016648;28;20029;-72
2023/12/28 05:42:42;;;;;;;16.48;2.65;;;;;;;;;;5015187;28;20265;-72
2023/12/28 05:45:08;;;;;;;24.07;3.23;;;;;;;;;;5016405;28;20091;-73
2023/12/28 05:47:33;;;;;;;19.13;3.40;;;;;;;;;;5016552;28;20260;-73
2023/12/28 05:49:58;;;;;;;19.35;3.17;;;;;;;;;;5016355;28;20423;-73
2023/12/28 05:52:24;;;;;;;17.90;3.08;;;;;;;;;;5015105;28;20459;-72
2023/12/28 05:54:49;;;;;;;20.02;3.03;;;;;;;;;;5014882;28;20391;-72
2023/12/28 05:57:14;;;;;;;16.77;2.83;;;;;;;;;;5015056;28;20018;-72
2023/12/28 05:59:40;;;;;;;16.98;2.97;;;;;;;;;;5015841;28;20265;-71
2023/12/28 06:02:05;;;;;;;19.38;3.30;;;;;;;;;;5016052;28;20485;-72
2023/12/28 06:04:31;;;;;;;20.75;3.35;;;;;;;;;;5014885;28;20409;-72
2023/12/28 06:06:56;;;;;;;20.88;3.75;;;;;;;;;;5015311;28;20091;-77
2023/12/28 06:09:21;;;;;;;22.42;3.55;;;;;;;;;;5015956;28;20454;-72
2023/12/28 06:11:46;;;;;;;25.67;3.60;;;;;;;;;;5016267;28;20017;-72
2023/12/28 06:14:11;;;;;;;22.57;3.77;;;;;;;;;;5016048;28;20310;-73
2023/12/28 06:16:37;;;;;;;28.20;4.97;;;;;;;;;;5015840;28;20300;-72
2023/12/28 06:19:02;;;;;;;24.00;4.05;;;;;;;;;;5016776;28;20268;-72
2023/12/28 06:21:29;;;;;;;27.13;3.58;;;;;;;;;;5015825;28;20378;-72
2023/12/28 06:23:55;;;;;;;18.45;3.15;;;;;;;;;;5014383;28;20022;-72
2023/12/28 06:26:20;;;;;;;32.97;4.78;;;;;;;;;;5015577;28;20109;-73
2023/12/28 06:28:45;;;;;;;23.47;3.47;;;;;;;;;;5015399;28;20454;-72
2023/12/28 06:31:10;;;;;;;33.33;3.97;;;;;;;;;;5015179;28;20803;-72
2023/12/28 06:33:36;;;;;;;29.70;4.63;;;;;;;;;;5015621;28;20030;-72
2023/12/28 06:36:07;;;;;;;30.05;4.47;;;;;;;;;;5015430;28;20633;-73
2023/12/28 06:38:33;;;;;;;;;;;;;;;;;;5016364;28;20026;-73
2023/12/28 06:40:58;;;;;;;28.45;4.43;;;;;;;;;;5015377;28;20265;-72
2023/12/28 06:43:23;;;;;;;24.92;5.35;;;;;;;;;;5014967;28;20512;-72
2023/12/28 06:45:48;;;;;;;34.53;3.90;;;;;;;;;;5014913;28;20113;-73
2023/12/28 06:48:13;;;;;;;27.67;4.00;;;;;;;;;;5014950;28;20357;-72
2023/12/28 06:50:39;;;;;;;36.33;4.72;;;;;;;;;;5014844;28;20343;-73
2023/12/28 06:53:04;;;;;;;27.63;4.05;;;;;;;;;;5014794;28;20060;-72
2023/12/28 06:55:29;;;;;;;32.72;4.30;;;;;;;;;;5014405;28;20068;-72
2023/12/28 06:57:55;;;;;;;28.45;4.45;;;;;;;;;;5014991;28;20512;-72
2023/12/28 07:00:20;;;;;;;29.48;4.50;;;;;;;;;;5014884;28;20397;-71
2023/12/28 07:02:45;;;;;;;24.47;4.63;;;;;;;;;;5014660;28;20367;-73
2023/12/28 07:05:12;;;;;;;41.07;5.50;;;;;;;;;;5014669;28;20765;-73
2023/12/28 07:07:37;;;;;;;36.80;4.50;;;;;;;;;;5015051;28;20295;-73
2023/12/28 07:10:03;;;;;;;33.22;3.95;;;;;;;;;;5014921;28;20454;-73
2023/12/28 07:12:28;;;;;;;19.73;3.28;;;;;;;;;;5015022;28;20135;-72
2023/12/28 07:14:53;;;;;;;27.50;3.58;;;;;;;;;;5015640;28;20026;-72
2023/12/28 07:17:19;;;;;;;29.88;4.65;;;;;;;;;;5014148;28;20037;-73
2023/12/28 07:19:44;;;;;;;21.40;3.87;;;;;;;;;;5013776;28;20030;-71
2023/12/28 07:22:09;;;;;;;26.45;4.75;;;;;;;;;;5014608;28;20257;-72
2023/12/28 07:24:35;;;;;;;26.40;4.57;;;;;;;;;;5015152;28;20104;-71
2023/12/28 07:27:00;;;;;;;26.50;4.03;;;;;;;;;;5013670;28;20370;-73
2023/12/28 07:29:25;;;;;;;20.07;3.57;;;;;;;;;;5015319;28;20025;-71
2023/12/28 07:31:50;;;;;;;30.33;3.85;;;;;;;;;;5014645;28;20665;-73
2023/12/28 07:34:15;;;;;;;21.33;3.67;;;;;;;;;;5013127;28;20313;-73
2023/12/28 07:36:43;;;;;;;21.73;3.53;;;;;;;;;;5014421;28;20756;-72
2023/12/28 07:39:08;;;;;;;22.13;3.53;;;;;;;;;;5014302;28;20045;-78
2023/12/28 07:41:33;;;;;;;24.33;3.75;;;;;;;;;;5013368;28;20068;-72
2023/12/28 07:43:59;;;;;;;24.55;3.58;;;;;;;;;;5014668;28;20037;-73
2023/12/28 07:46:24;;;;;;;19.30;3.00;;;;;;;;;;5015031;28;20022;-73
2023/12/28 07:48:49;;;;;;;28.73;4.75;;;;;;;;;;5014419;28;20029;-73
2023/12/28 07:51:14;;;;;;;26.67;4.10;;;;;;;;;;5014175;28;20022;-73
2023/12/28 07:53:40;;;;;;;27.00;4.10;;;;;;;;;;5014351;28;20120;-72
2023/12/28 07:56:05;;;;;;;23.58;3.67;;;;;;;;;;5015485;28;20293;-73
2023/12/28 07:58:30;;;;;;;20.20;3.22;;;;;;;;;;5015729;28;20412;-72
2023/12/28 08:00:56;;;;;;;21.58;3.08;;;;;;;;;;5015328;28;20054;-72
2023/12/28 08:03:21;;;;;;;25.00;3.55;;;;;;;;;;5015355;28;20048;-73
2023/12/28 08:05:46;;;;;;;16.90;3.03;;;;;;;;;;5015134;28;20104;-72
2023/12/28 08:08:11;;;;;;;22.57;4.20;;;;;;;;;;5014959;28;20080;-73
2023/12/28 08:10:36;;;;;;;17.92;3.55;;;;;;;;;;5013469;28;20694;-72
2023/12/28 08:13:02;;;;;;;21.30;3.30;;;;;;;;;;5013612;28;20522;-73
2023/12/28 08:15:27;;;;;;;20.05;3.53;;;;;;;;;;5014390;28;20347;-74
2023/12/28 08:17:52;;;;;;;26.25;3.65;;;;;;;;;;5014426;28;20052;-73
2023/12/28 08:20:17;;;;;;;21.40;3.07;;;;;;;;;;5013647;28;20382;-74
2023/12/28 08:22:43;;;;;;;18.43;3.27;;;;;;;;;;5013406;28;20745;-74
2023/12/28 08:25:08;;;;;;;21.75;3.45;;;;;;;;;;5013602;28;20281;-72
2023/12/28 08:27:33;;;;;;;23.45;4.82;;;;;;;;;;5013707;28;20475;-72
2023/12/28 08:29:59;;;;;;;27.20;3.60;;;;;;;;;;5013341;28;20032;-72
2023/12/28 08:32:24;;;;;;;29.25;4.88;;;;;;;;;;5012822;28;20256;-75
2023/12/28 08:34:50;;;;;;;20.80;2.72;;;;;;;;;;5011986;28;20121;-71
2023/12/28 08:37:15;;;;;;;22.73;3.42;;;;;;;;;;5013225;28;20045;-73
2023/12/28 08:39:41;;;;;;;21.30;2.88;;;;;;;;;;5012167;28;20022;-72
2023/12/28 08:42:06;;;;;;;26.67;3.40;;;;;;;;;;5012120;28;20484;-73
2023/12/28 08:44:32;;;;;;;27.50;3.70;;;;;;;;;;5013028;28;20733;-73
2023/12/28 08:46:57;;;;;;;20.35;3.75;;;;;;;;;;5012836;28;20454;-72
2023/12/28 08:49:23;;;;;;;19.13;3.88;;;;;;;;;;5012662;28;20052;-74
2023/12/28 08:51:48;;;;;;;22.73;3.03;;;;;;;;;;5011497;28;20030;-73
2023/12/28 08:54:14;;;;;;;23.33;3.15;;;;;;;;;;5013066;28;20425;-74
2023/12/28 08:56:39;;;;;;;20.75;3.42;;;;;;;;;;5013241;28;20455;-74
2023/12/28 08:59:04;;;;;;;23.60;3.95;;;;;;;;;;5013550;28;20054;-73
2023/12/28 09:01:30;;;;;;;20.52;4.00;;;;;;;;;;5012949;28;20037;-73
2023/12/28 09:03:55;;;;;;;18.98;4.00;;;;;;;;;;5012480;28;20033;-73
2023/12/28 09:06:21;;;;;;;20.95;3.55;;;;;;;;;;5011305;28;20026;-74
2023/12/28 09:08:47;;;;;;;28.77;3.10;;;;;;;;;;5012736;28;20026;-74
2023/12/28 09:11:13;;;;;;;31.25;3.65;;;;;;;;;;5011706;28;20033;-74
2023/12/28 09:13:38;;;;;;;18.67;3.00;;;;;;;;;;5013139;28;20430;-74
2023/12/28 09:16:05;;;;;;;20.85;3.80;;;;;;;;;;5014137;28;20037;-74
2023/12/28 09:18:30;;;;;;;19.75;3.17;;;;;;;;;;5012751;28;20435;-74
2023/12/28 09:20:55;;;;;;;20.17;3.28;;;;;;;;;;5011565;28;20026;-74
2023/12/28 09:23:20;;;;;;;29.27;3.70;;;;;;;;;;5013449;28;20076;-73
2023/12/28 09:25:45;;;;;;;27.13;3.97;;;;;;;;;;5013245;28;20281;-72
2023/12/28 09:28:11;;;;;;;25.05;3.90;;;;;;;;;;5013199;28;20072;-74
2023/12/28 09:30:36;;;;;;;25.88;3.67;;;;;;;;;;5012675;28;20060;-73
2023/12/28 09:33:01;;;;;;;23.85;3.95;;;;;;;;;;5013311;28;20478;-72
2023/12/28 09:35:26;;;;;;;29.77;4.13;;;;;;;;;;5012655;28;20037;-73
2023/12/28 09:37:52;;;;;;;30.25;4.15;;;;;;;;;;5013780;28;20025;-76
2023/12/28 09:40:17;;;;;;;23.65;3.58;;;;;;;;;;5012970;28;20022;-72
2023/12/28 09:42:53;;;;;;;17.80;3.45;;;;;;;;;;5015247;28;20030;-72
2023/12/28 09:45:18;;;;;;;29.58;4.10;;;;;;;;;;5016553;28;20022;-72
2023/12/28 09:47:44;;;;;;;22.95;3.58;;;;;;;;;;5017282;28;20033;-71
2023/12/28 09:50:10;;;;;;;21.52;3.67;;;;;;;;;;5016495;28;20018;-71
2023/12/28 09:52:35;;;;;;;28.30;3.78;;;;;;;;;;5016608;28;20344;-73
2023/12/28 09:55:01;;;;;;;34.60;4.18;;;;;;;;;;5016787;28;20065;-72
2023/12/28 09:57:26;;;;;;;23.08;3.58;;;;;;;;;;5016454;28;20516;-71
2023/12/28 09:59:51;;;;;;;22.63;3.90;;;;;;;;;;5016344;28;20026;-72
2023/12/28 10:02:17;;;;;;;21.38;3.90;;;;;;;;;;5016733;28;20030;-71
2023/12/28 10:04:42;;;;;;;26.73;4.35;;;;;;;;;;5016487;28;20060;-72
2023/12/28 10:07:07;;;;;;;34.17;5.10;;;;;;;;;;5016569;28;20022;-72
2023/12/28 10:09:32;;;;;;;27.15;3.42;;;;;;;;;;5015911;28;20097;-73
2023/12/28 10:11:58;;;;;;;32.95;4.10;;;;;;;;;;5015730;28;20036;-73
2023/12/28 10:14:23;;;;;;;24.05;3.47;;;;;;;;;;5016136;28;20057;-74
2023/12/28 10:16:48;;;;;;;28.60;3.85;;;;;;;;;;5016245;28;20037;-72
2023/12/28 10:19:13;;;;;;;28.05;4.63;;;;;;;;;;5015064;28;20025;-73
2023/12/28 10:21:39;;;;;;;20.30;3.20;;;;;;;;;;5015672;28;20497;-73
2023/12/28 10:24:05;;;;;;;25.75;3.75;;;;;;;;;;5015921;28;20284;-72
2023/12/28 10:26:30;;;;;;;28.80;4.70;;;;;;;;;;5015579;28;20061;-72
2023/12/28 10:29:05;;;;;;;21.45;3.55;;;;;;;;;;5015983;28;20038;-71
2023/12/28 10:31:30;;;;;;;35.75;4.90;;;;;;;;;;5015989;28;20026;-72
2023/12/28 10:34:02;;;;;;;29.88;4.07;;;;;;;;;;5015610;28;20420;-72
2023/12/28 10:36:27;;;;;;;26.73;3.45;;;;;;;;;;5015673;28;20030;-73
2023/12/28 10:38:53;;;;;;;25.20;3.85;;;;;;;;;;5014294;28;20022;-73
2023/12/28 10:41:18;;;;;;;22.42;4.22;;;;;;;;;;5015607;28;20094;-72
2023/12/28 10:44:03;;;;;;;28.38;4.65;;;;;;;;;;5015463;28;20369;-73
2023/12/28 10:46:30;;;;;;;31.50;4.60;;;;;;;;;;5015108;28;20363;-72
2023/12/28 10:49:16;;;;;;;26.80;5.35;;;;;;;;;;5015487;28;20033;-73
2023/12/28 10:51:45;;;;;;;21.33;3.97;;;;;;;;;;5013797;28;20018;-73
2023/12/28 10:54:21;;;;;;;32.08;3.97;;;;;;;;;;5015199;28;20058;-72
2023/12/28 10:56:49;;;;;;;35.33;5.05;;;;;;;;;;5016290;28;20327;-71
2023/12/28 10:59:15;;;;;;;24.08;3.95;;;;;;;;;;5015250;28;20478;-72
2023/12/28 11:01:41;;;;;;;22.88;3.55;;;;;;;;;;5013432;28;20125;-73
2023/12/28 11:04:08;;;;;;;23.55;3.85;;;;;;;;;;5015125;28;20111;-72
2023/12/28 11:06:33;;;;;;;29.50;4.47;;;;;;;;;;5015500;28;20025;-73
2023/12/28 11:08:59;;;;;;;21.67;3.83;;;;;;;;;;5014723;28;20065;-72
2023/12/28 11:11:25;;;;;;;33.63;4.30;;;;;;;;;;5014992;28;20413;-72
2023/12/28 11:13:51;;;;;;;23.23;3.85;;;;;;;;;;5014884;28;20405;-71
2023/12/28 11:16:17;;;;;;;21.48;4.20;;;;;;;;;;5015003;28;20481;-71
2023/12/28 11:18:42;;;;;;;28.70;4.38;;;;;;;;;;5013253;28;20101;-72
2023/12/28 11:21:08;;;;;;;25.48;3.70;;;;;;;;;;5014529;28;20021;-71
2023/12/28 11:23:33;;;;;;;24.35;3.00;;;;;;;;;;5015116;28;20022;-73
2023/12/28 11:25:59;;;;;;;18.23;3.15;;;;;;;;;;5013352;28;20364;-71
2023/12/28 11:28:24;;;;;;;26.10;4.03;;;;;;;;;;5014722;28;20108;-71
2023/12/28 11:30:50;;;;;;;23.42;3.95;;;;;;;;;;5013743;28;20347;-72
2023/12/28 11:33:17;;;;;;;28.80;3.50;;;;;;;;;;5015005;28;20505;-71
2023/12/28 11:35:42;;;;;;;32.33;4.35;;;;;;;;;;5013122;28;20121;-71
2023/12/28 11:38:11;;;;;;;23.67;4.13;;;;;;;;;;5014742;28;20062;-72
2023/12/28 11:40:42;;;;;;;25.92;3.42;;;;;;;;;;5014514;28;20489;-72
2023/12/28 11:43:14;;;;;;;30.75;4.00;;;;;;;;;;5014367;28;20475;-72
2023/12/28 11:45:46;;;;;;;29.55;4.47;;;;;;;;;;5014109;28;20034;-71
2023/12/28 11:48:11;;;;;;;;;;;;;;;;;;5015290;28;20052;-72
2023/12/28 11:50:36;;;;;;;21.13;3.13;;;;;;;;;;5014574;28;20095;-71
2023/12/28 11:53:01;;;;;;;24.75;5.03;;;;;;;;;;5014142;28;20096;-71
2023/12/28 11:55:27;;;;;;;26.50;3.30;;;;;;;;;;5014664;28;20136;-72
2023/12/28 11:57:52;;;;;;;18.05;4.53;;;;;;;;;;5014096;28;20425;-71
2023/12/28 12:00:17;;;;;;;24.17;3.85;;;;;;;;;;5014626;28;20120;-72
2023/12/28 12:02:43;;;;;;;18.45;3.38;;;;;;;;;;5012897;28;20056;-72
2023/12/28 12:05:09;;;;;;;21.83;3.83;;;;;;;;;;5014100;28;20022;-71
2023/12/28 12:07:34;;;;;;;25.48;3.63;;;;;;;;;;5013542;28;20394;-71
2023/12/28 12:09:59;;;;;;;19.73;3.70;;;;;;;;;;5012646;28;20055;-71
2023/12/28 12:12:25;;;;;;;20.60;4.40;;;;;;;;;;5013925;28;20252;-71
2023/12/28 12:14:50;;;;;;;23.77;3.83;;;;;;;;;;5014155;28;20034;-74
2023/12/28 12:17:17;;;;;;;21.30;3.28;;;;;;;;;;5014556;28;20126;-72
2023/12/28 12:19:42;;;;;;;21.70;3.55;;;;;;;;;;5013953;28;20029;-72
2023/12/28 12:22:07;;;;;;;25.55;4.47;;;;;;;;;;5013730;28;20030;-71
2023/12/28 12:24:33;;;;;;;23.57;3.30;;;;;;;;;;5013791;28;20447;-71
2023/12/28 12:27:01;;;;;;;23.17;3.80;;;;;;;;;;5013875;28;20785;-72
2023/12/28 12:29:29;;;;;;;25.60;3.60;;;;;;;;;;5013595;28;20029;-72
2023/12/28 12:31:54;;;;;;;45.40;11.98;;;;;;;;;;5013627;28;20060;-73
2023/12/28 12:34:20;;;;;;;19.38;3.08;;;;;;;;;;5013704;28;20378;-72
2023/12/28 12:36:45;;;;;;;24.20;4.32;;;;;;;;;;5013639;28;20029;-72
2023/12/28 12:39:11;;;;;;;23.23;3.67;;;;;;;;;;5013843;28;20032;-73
2023/12/28 12:41:37;;;;;;;26.23;4.18;;;;;;;;;;5013596;28;20459;-71
2023/12/28 12:44:03;;;;;;;27.50;3.65;;;;;;;;;;5013262;28;20029;-71
2023/12/28 12:46:29;;;;;;;19.80;3.30;;;;;;;;;;5013339;28;20548;-72
2023/12/28 12:48:58;;;;;;;23.08;3.55;;;;;;;;;;5013086;28;20022;-76
2023/12/28 12:51:24;;;;;;;31.02;4.18;;;;;;;;;;5013420;28;20026;-71
2023/12/28 12:53:49;;;;;;;22.27;3.58;;;;;;;;;;5012953;28;20410;-71
2023/12/28 12:56:15;;;;;;;30.00;4.53;;;;;;;;;;5013434;28;20041;-72
2023/12/28 12:58:40;;;;;;;15.55;2.97;;;;;;;;;;5013249;28;20264;-71
2023/12/28 13:01:09;;;;;;;18.45;3.10;;;;;;;;;;5013302;28;20356;-71
2023/12/28 13:03:35;;;;;;;18.35;3.60;;;;;;;;;;5012325;28;20018;-71
2023/12/28 13:06:02;;;;;;;21.77;3.15;;;;;;;;;;5013149;28;20040;-73
2023/12/28 13:08:27;;;;;;;21.63;3.42;;;;;;;;;;5013808;28;20026;-72
2023/12/28 13:10:53;;;;;;;26.35;4.32;;;;;;;;;;5013333;28;20029;-71
2023/12/28 13:13:18;;;;;;;15.73;2.97;;;;;;;;;;5013420;28;20119;-71
2023/12/28 13:15:43;;;;;;;22.83;3.63;;;;;;;;;;5015607;28;20267;-71
2023/12/28 13:18:08;;;;;;;24.13;3.63;;;;;;;;;;5016732;28;20034;-72
2023/12/28 13:20:34;;;;;;;24.63;3.97;;;;;;;;;;5017000;28;20030;-73
2023/12/28 13:22:59;;;;;;;26.13;3.95;;;;;;;;;;5016894;28;20053;-71
2023/12/28 13:25:24;;;;;;;23.17;3.95;;;;;;;;;;5016839;28;20025;-72
2023/12/28 13:27:49;;;;;;;24.10;3.70;;;;;;;;;;5017237;28;20107;-72
2023/12/28 13:30:15;;;;;;;21.87;3.40;;;;;;;;;;5016802;28;20609;-72
2023/12/28 13:32:40;;;;;;;27.13;3.72;;;;;;;;;;5016804;28;20757;-72
2023/12/28 13:35:05;;;;;;;24.83;3.65;;;;;;;;;;5016705;28;20378;-72
2023/12/28 13:37:31;;;;;;;24.27;3.47;;;;;;;;;;5016101;28;20084;-72
2023/12/28 13:39:56;;;;;;;24.33;4.25;;;;;;;;;;5015683;28;20398;-73
2023/12/28 13:42:21;;;;;;;21.10;3.45;;;;;;;;;;5016642;28;20370;-72
2023/12/28 13:44:46;;;;;;;28.23;3.45;;;;;;;;;;5015996;28;20409;-71
2023/12/28 13:47:11;;;;;;;22.00;3.53;;;;;;;;;;5016453;28;20026;-72
2023/12/28 13:49:37;;;;;;;28.63;4.53;;;;;;;;;;5016544;28;20272;-72
2023/12/28 13:52:02;;;;;;;22.17;4.20;;;;;;;;;;5017155;28;20029;-72
2023/12/28 13:54:27;;;;;;;31.13;3.83;;;;;;;;;;5016460;28;20042;-72
2023/12/28 13:56:57;;;;;;;24.17;4.93;;;;;;;;;;5016386;28;20026;-72
2023/12/28 13:59:22;;;;;;;24.17;3.50;;;;;;;;;;5016357;28;20084;-72
2023/12/28 14:01:47;;;;;;;27.05;4.10;;;;;;;;;;5016623;28;20458;-71
2023/12/28 14:04:13;;;;;;;17.90;3.05;;;;;;;;;;5015905;28;20033;-72
2023/12/28 14:06:38;;;;;;;25.30;3.93;;;;;;;;;;5016172;28;20383;-71
2023/12/28 14:09:03;;;;;;;24.60;3.72;;;;;;;;;;5015135;28;20764;-71
2023/12/28 14:11:28;;;;;;;23.02;3.42;;;;;;;;;;5016017;28;20101;-71
2023/12/28 14:13:54;;;;;;;21.52;4.65;;;;;;;;;;5015500;28;20029;-72
2023/12/28 14:16:19;;;;;;;22.47;3.17;;;;;;;;;;5015943;28;20030;-72
2023/12/28 14:18:44;;;;;;;22.17;4.15;;;;;;;;;;5015930;28;20257;-72
2023/12/28 14:21:09;;;;;;;22.10;3.10;;;;;;;;;;5014770;28;20018;-75
2023/12/28 14:23:35;;;;;;;19.88;3.63;;;;;;;;;;5016537;28;20076;-72